KDCU

Pryor Field Regional Airport

Decatur, Alabama, USA
METAR KDCU 162353Z AUTO 18006KT 10SM CLR 04/M01 A3023 RMK AO2 SLP242 T00441011 10111 20028 53005 $
Observed Flight Rules
Dec-16 @ 23:53 UTC (36 minutes ago) Visual Flight Rules
Wind Visibility Clouds
180° at 6 knots 10 miles
  • Clear skies
Temperatures Readings
Current 4°C / 39°F
Dewpoint -1°C / 30°F
Humidity 70%
Altimeter 30.23" Hg
Pressure 1024.2 hPa
Elevation 176
METAR KDCU 162353Z AUTO 18006KT 10SM CLR 04/M01 A3023 RMK AO2 SLP242 T00441011 10111 20028 53005 $
Observed Flight Rules
Dec-16 @ 23:53 UTC
(36 minutes ago)
VFR
Wind Visibility
180° at 6 knots 10 miles
Clouds
  • Clear skies
Temperature Dewpoint
4°C / 39°F -1°C / 30°F
Humidity Altimeter Pressure
70% 30.23" Hg 1024.2 hPa